Time;durP1;ratioP1;P1;durP2;ratioP2;P2;SDS_P1;SDS_P2;PMS_P1;PMS_P2;Temp;Humidity;BMP_temperature;BMP_pressure;BME280_temperature;BME280_humidity;BME280_pressure;Samples;Min_cycle;Max_cycle;Signal;HPM_P1;HPM_P2
2023/03/09 00:02:04;;;;;;;;;2.25;0.00;;;;;10.63;100.00;99253.31;5098112;27;70357;-81
2023/03/09 00:04:30;;;;;;;;;0.00;0.00;;;;;10.59;100.00;99255.25;5117254;27;45434;-81
2023/03/09 00:06:55;;;;;;;;;0.00;0.00;;;;;10.56;100.00;99259.78;5099145;27;45551;-81
2023/03/09 00:09:20;;;;;;;;;0.00;0.00;;;;;10.54;100.00;99264.22;5116435;27;66257;-81
2023/03/09 00:11:48;;;;;;;;;1.50;0.00;;;;;10.56;100.00;99275.38;5098954;27;45404;-81
2023/03/09 00:14:14;;;;;;;;;3.50;0.00;;;;;10.52;100.00;99269.50;5116169;27;45408;-81
2023/03/09 00:16:40;;;;;;;;;1.75;0.00;;;;;10.48;100.00;99281.00;5098694;27;45255;-81
2023/03/09 00:19:05;;;;;;;;;0.50;0.50;;;;;10.48;100.00;99296.59;5098564;27;47090;-81
2023/03/09 00:21:34;;;;;;;;;1.50;0.00;;;;;10.45;100.00;99284.56;5098831;27;45717;-80
2023/03/09 00:24:10;;;;;;;;;1.75;0.00;;;;;10.41;100.00;99284.81;5111219;27;45383;-81
2023/03/09 00:26:38;;;;;;;;;5.00;0.00;;;;;10.36;100.00;99284.22;5095228;27;45476;-81
2023/03/09 00:29:05;;;;;;;;;1.50;0.00;;;;;10.37;100.00;99285.91;5096313;27;45495;-81
2023/03/09 00:31:30;;;;;;;;;0.00;0.00;;;;;10.39;100.00;99299.66;5096504;27;45412;-81
2023/03/09 00:33:55;;;;;;;;;2.50;0.00;;;;;10.36;100.00;99308.44;5095447;27;60020;-81
2023/03/09 00:36:21;;;;;;;;;0.75;0.00;;;;;10.34;100.00;99304.25;5095919;27;58621;-81
2023/03/09 00:38:54;;;;;;;;;1.00;0.00;;;;;10.30;100.00;99303.53;5095582;27;46620;-80
2023/03/09 00:41:20;;;;;;;;;1.50;0.00;;;;;10.31;100.00;99299.19;5095160;27;45409;-81
2023/03/09 00:43:45;;;;;;;;;0.00;0.00;;;;;10.25;100.00;99303.78;5112398;27;45318;-81
2023/03/09 00:46:11;;;;;;;;;0.00;0.00;;;;;10.22;100.00;99309.13;5095133;27;45489;-82
2023/03/09 00:48:37;;;;;;;;;2.00;0.00;;;;;10.25;100.00;99316.78;5095625;27;47034;-81
2023/03/09 00:51:04;;;;;;;;;1.25;0.00;;;;;10.20;100.00;99310.97;5095959;27;45611;-82
2023/03/09 00:53:29;;;;;;;;;1.00;1.00;;;;;10.20;100.00;99325.75;5095174;27;45451;-82
2023/03/09 00:55:54;;;;;;;;;1.50;0.00;;;;;10.20;100.00;99310.97;5095203;27;67004;-82
2023/03/09 00:58:20;;;;;;;;;1.00;0.00;;;;;10.18;100.00;99323.22;5093619;27;67507;-82
2023/03/09 01:00:46;;;;;;;;;1.25;0.00;;;;;10.20;100.00;99339.56;5095792;27;45448;-82
2023/03/09 01:03:11;;;;;;;;;2.00;0.00;;;;;10.19;100.00;99340.47;5095450;27;52255;-82
2023/03/09 01:05:37;;;;;;;;;0.00;0.00;;;;;10.12;100.00;99326.09;5096127;27;45450;-81
2023/03/09 01:08:03;;;;;;;;;0.00;0.00;;;;;10.10;100.00;99335.72;5095272;27;45462;-81
2023/03/09 01:10:28;;;;;;;;;0.00;0.00;;;;;10.15;100.00;99346.75;5094806;27;45470;-82
2023/03/09 01:12:54;;;;;;;;;0.00;0.00;;;;;10.14;100.00;99350.28;5095157;27;63592;-80
2023/03/09 01:15:20;;;;;;;;;0.00;0.00;;;;;10.15;100.00;99356.31;5094597;27;45352;-81
2023/03/09 01:17:47;;;;;;;;;1.75;1.00;;;;;10.10;100.00;99337.50;5094102;27;45582;-81
2023/03/09 01:20:13;;;;;;;;;0.00;0.00;;;;;10.15;100.00;99353.72;5095662;27;45589;-81
2023/03/09 01:22:39;;;;;;;;;3.00;0.00;;;;;10.13;100.00;99345.16;5093569;27;45503;-82
2023/03/09 01:25:05;;;;;;;;;1.00;1.00;;;;;10.10;100.00;99353.09;5092288;27;45429;-81
2023/03/09 01:27:30;;;;;;;;;0.00;0.00;;;;;10.14;100.00;99365.03;5093006;27;45412;-81
2023/03/09 01:29:56;;;;;;;;;2.25;0.75;;;;;10.14;100.00;99371.09;5091437;27;64405;-82
2023/03/09 01:32:21;;;;;;;;;1.75;0.00;;;;;10.06;100.00;99365.41;5092023;27;45424;-80
2023/03/09 01:34:46;;;;;;;;;3.75;0.00;;;;;10.14;100.00;99389.28;5094835;27;59986;-82
2023/03/09 01:37:12;;;;;;;;;0.25;0.00;;;;;10.10;100.00;99382.53;5094174;27;46376;-82
2023/03/09 01:39:37;;;;;;;;;1.00;0.00;;;;;10.08;100.00;99382.63;5095486;27;45320;-82
2023/03/09 01:42:02;;;;;;;;;0.00;0.00;;;;;10.09;100.00;99383.47;5094996;27;57484;-82
2023/03/09 01:44:28;;;;;;;;;0.25;0.00;;;;;10.14;100.00;99388.44;5094218;27;51156;-82
2023/03/09 01:46:56;;;;;;;;;2.50;0.00;;;;;10.10;100.00;99392.94;5093963;27;68583;-81
2023/03/09 01:49:36;;;;;;;;;1.25;0.00;;;;;10.16;100.00;99389.19;5094116;27;45754;-82
2023/03/09 01:52:05;;;;;;;;;0.00;0.00;;;;;10.11;100.00;99394.63;5098896;27;45375;-80
2023/03/09 01:54:48;;;;;;;;;3.00;0.00;;;;;10.15;100.00;99397.94;5115932;27;45324;-80
2023/03/09 01:57:32;;;;;;;;;1.00;0.75;;;;;10.19;100.00;99400.28;5116818;27;46307;-81
2023/03/09 02:00:07;;;;;;;;;1.50;0.00;;;;;10.20;100.00;99401.97;5116584;27;45701;-82
2023/03/09 02:02:37;;;;;;;;;2.25;0.00;;;;;10.21;100.00;99392.41;5117171;27;45400;-82
2023/03/09 02:05:07;;;;;;;;;1.75;0.00;;;;;10.25;100.00;99401.75;5093979;27;45499;-82
2023/03/09 02:07:36;;;;;;;;;2.00;0.00;;;;;10.24;100.00;99397.47;5097373;27;46762;-82
2023/03/09 02:10:07;;;;;;;;;2.50;0.50;;;;;10.26;100.00;99401.69;5098593;27;45735;-82
2023/03/09 02:12:33;;;;;;;;;2.50;0.00;;;;;10.29;100.00;99403.31;5114549;27;45414;-82
2023/03/09 02:15:00;;;;;;;;;1.00;1.00;;;;;10.34;100.00;99421.31;5098002;27;50571;-79
2023/03/09 02:17:25;;;;;;;;;0.00;0.00;;;;;10.37;100.00;99410.75;5114017;27;45414;-81
2023/03/09 02:20:10;;;;;;;;;0.00;0.00;;;;;10.42;100.00;99413.97;5097303;27;45404;-80
2023/03/09 02:22:37;;;;;;;;;1.50;0.00;;;;;10.45;100.00;99424.22;5098603;27;45351;-82
2023/03/09 02:25:16;;;;;;;;;1.00;0.00;;;;;10.43;100.00;99413.88;5116383;27;45364;-81
2023/03/09 02:27:41;;;;;;;;;1.00;0.00;;;;;10.50;100.00;99429.22;5097942;27;47420;-79
2023/03/09 02:30:09;;;;;;;;;0.00;0.00;;;;;10.55;100.00;99428.06;5097364;27;61906;-82
2023/03/09 02:32:34;;;;;;;;;2.50;0.00;;;;;10.57;100.00;99430.59;5097372;27;45493;-81
2023/03/09 02:35:00;;;;;;;;;2.00;1.00;;;;;10.61;100.00;99432.13;5097881;27;54030;-82
2023/03/09 02:37:29;;;;;;;;;1.75;0.00;;;;;10.67;100.00;99429.19;5117811;27;70446;-82
2023/03/09 02:39:57;;;;;;;;;7.00;1.00;;;;;10.70;100.00;99443.81;5100426;27;45808;-80
2023/03/09 02:42:23;;;;;;;;;1.25;0.00;;;;;10.71;100.00;99438.53;5100733;27;45393;-82
2023/03/09 02:44:48;;;;;;;;;0.00;0.00;;;;;10.71;100.00;99443.72;5099759;27;45389;-81
2023/03/09 02:47:18;;;;;;;;;0.00;0.00;;;;;10.75;100.00;99452.22;5117758;27;72111;-79
2023/03/09 02:49:44;;;;;;;;;0.00;0.00;;;;;10.67;100.00;99455.22;5117467;27;45612;-80
2023/03/09 02:52:09;;;;;;;;;0.00;0.00;;;;;10.71;100.00;99455.91;5117896;27;59511;-82
2023/03/09 02:54:35;;;;;;;;;0.00;0.00;;;;;10.71;100.00;99459.34;5099971;27;45416;-81
2023/03/09 02:57:00;;;;;;;;;3.50;0.00;;;;;10.74;100.00;99469.63;5098892;27;67710;-78
2023/03/09 02:59:25;;;;;;;;;1.00;0.00;;;;;10.74;100.00;99463.56;5117363;27;69547;-82
2023/03/09 03:01:51;;;;;;;;;2.25;1.00;;;;;10.80;100.00;99463.25;5117729;27;60698;-82
2023/03/09 03:04:16;;;;;;;;;0.00;0.00;;;;;10.83;100.00;99474.38;5117552;27;62037;-81
2023/03/09 03:06:41;;;;;;;;;0.00;0.00;;;;;10.86;100.00;99465.53;5098979;27;69514;-82
2023/03/09 03:09:06;;;;;;;;;2.00;1.00;;;;;10.86;100.00;99460.34;5117788;27;60900;-81
2023/03/09 03:11:32;;;;;;;;;5.00;0.00;;;;;10.96;100.00;99476.38;5116105;27;63382;-81
2023/03/09 03:13:57;;;;;;;;;1.00;0.00;;;;;10.97;100.00;99473.66;5100019;27;45462;-82
2023/03/09 03:16:23;;;;;;;;;3.00;1.00;;;;;10.95;100.00;99475.50;5099034;27;66647;-82
2023/03/09 03:18:48;;;;;;;;;1.00;0.00;;;;;10.96;100.00;99468.56;5097428;27;61587;-82
2023/03/09 03:21:13;;;;;;;;;5.00;0.00;;;;;11.03;100.00;99486.38;5115313;27;62866;-82
2023/03/09 03:23:39;;;;;;;;;6.50;0.00;;;;;11.00;100.00;99478.72;5111948;27;59665;-81
2023/03/09 03:26:08;;;;;;;;;2.00;0.00;;;;;11.03;100.00;99482.91;5093976;27;68090;-82
2023/03/09 03:28:34;;;;;;;;;2.00;0.00;;;;;11.00;100.00;99483.94;5094693;27;45650;-81
2023/03/09 03:30:59;;;;;;;;;3.00;0.25;;;;;10.99;100.00;99495.25;5097437;27;45419;-81
2023/03/09 03:33:25;;;;;;;;;2.00;0.00;;;;;11.00;100.00;99496.94;5096349;27;45355;-82
2023/03/09 03:35:50;;;;;;;;;0.50;0.00;;;;;11.00;100.00;99499.56;5096947;27;57543;-82
2023/03/09 03:38:16;;;;;;;;;0.50;0.00;;;;;11.02;100.00;99502.91;5095678;27;52102;-82
2023/03/09 03:40:41;;;;;;;;;1.50;0.00;;;;;11.03;100.00;99503.75;5097014;27;45812;-82
2023/03/09 03:43:06;;;;;;;;;0.25;0.00;;;;;11.02;100.00;99504.69;5096745;27;57080;-82
2023/03/09 03:45:32;;;;;;;;;0.00;0.00;;;;;10.99;100.00;99504.81;5112991;27;47044;-82
2023/03/09 03:47:57;;;;;;;;;1.75;0.00;;;;;11.05;100.00;99509.75;5095054;27;58124;-81
2023/03/09 03:50:22;;;;;;;;;0.25;0.25;;;;;11.01;100.00;99498.66;5096498;27;61442;-81
2023/03/09 03:52:48;;;;;;;;;7.75;0.75;;;;;11.06;100.00;99510.59;5099729;27;57252;-82
2023/03/09 03:55:13;;;;;;;;;1.00;0.00;;;;;11.06;100.00;99507.97;5098157;27;68357;-81
2023/03/09 03:57:38;;;;;;;;;5.50;1.00;;;;;11.06;100.00;99523.59;5098442;27;57801;-82
2023/03/09 04:00:09;;;;;;;;;7.75;0.25;;;;;11.03;100.00;99522.84;5116933;27;56175;-82
2023/03/09 04:02:35;;;;;;;;;3.00;2.00;;;;;11.07;100.00;99528.75;5117535;27;45547;-81
2023/03/09 04:05:00;;;;;;;;;5.00;1.00;;;;;11.09;100.00;99529.50;5117336;27;46354;-81
2023/03/09 04:07:26;;;;;;;;;0.25;0.00;;;;;11.08;100.00;99525.19;5116488;27;70223;-81
2023/03/09 04:09:51;;;;;;;;;2.25;0.00;;;;;11.08;100.00;99527.81;5116398;27;62630;-82
2023/03/09 04:12:16;;;;;;;;;1.50;0.25;;;;;11.08;100.00;99542.59;5098165;27;59232;-79
2023/03/09 04:14:42;;;;;;;;;3.75;0.00;;;;;11.07;100.00;99544.38;5115668;27;68094;-80
2023/03/09 04:17:08;;;;;;;;;2.50;0.00;;;;;11.03;100.00;99537.59;5114926;27;69081;-80
2023/03/09 04:19:33;;;;;;;;;0.00;0.00;;;;;11.06;100.00;99549.63;5117260;27;45402;-80
2023/03/09 04:21:59;;;;;;;;;1.00;0.00;;;;;11.07;100.00;99544.38;5098248;27;62158;-82
2023/03/09 04:24:24;;;;;;;;;1.00;1.00;;;;;11.10;100.00;99546.78;5098455;27;46212;-80
2023/03/09 04:26:49;;;;;;;;;1.00;0.50;;;;;11.12;100.00;99551.94;5116881;27;48972;-78
2023/03/09 04:29:15;;;;;;;;;5.00;1.00;;;;;11.14;100.00;99547.47;5117123;27;45340;-80
2023/03/09 04:31:40;;;;;;;;;0.75;0.75;;;;;11.17;100.00;99549.94;5117007;27;45424;-80
2023/03/09 04:34:06;;;;;;;;;0.75;0.25;;;;;11.24;100.00;99551.31;5116839;27;47040;-80
2023/03/09 04:36:31;;;;;;;;;2.00;1.00;;;;;11.26;100.00;99553.84;5116266;27;63015;-81
2023/03/09 04:38:56;;;;;;;;;0.25;0.25;;;;;11.27;100.00;99555.53;5116069;27;58039;-80
2023/03/09 04:41:22;;;;;;;;;4.50;1.00;;;;;11.33;100.00;99573.44;5116446;27;54615;-80
2023/03/09 04:43:47;;;;;;;;;1.50;0.00;;;;;11.28;100.00;99565.88;5116111;27;46073;-81
2023/03/09 04:46:12;;;;;;;;;3.00;0.00;;;;;11.32;100.00;99579.59;5113496;27;67787;-83
2023/03/09 04:48:38;;;;;;;;;1.00;1.00;;;;;11.33;100.00;99589.94;5114501;27;45447;-81
2023/03/09 04:51:03;;;;;;;;;0.00;0.00;;;;;11.37;100.00;99596.69;5114552;27;45441;-80
2023/03/09 04:53:28;;;;;;;;;2.00;0.75;;;;;11.39;100.00;99601.81;5113724;27;46018;-80
2023/03/09 04:55:54;;;;;;;;;6.00;1.00;;;;;11.35;100.00;99582.88;5095079;27;69952;-80
2023/03/09 04:58:19;;;;;;;;;1.75;0.50;;;;;11.38;100.00;99587.91;5113697;27;58911;-81
2023/03/09 05:00:44;;;;;;;;;2.00;1.00;;;;;11.37;100.00;99585.41;5114684;27;62301;-83
2023/03/09 05:03:10;;;;;;;;;0.00;0.00;;;;;11.42;100.00;99591.22;5116362;27;54264;-80
2023/03/09 05:05:35;;;;;;;;;2.00;1.00;;;;;11.37;100.00;99586.25;5097459;27;63782;-80
2023/03/09 05:08:00;;;;;;;;;2.00;1.00;;;;;11.40;100.00;99582.63;5080628;27;45406;-80
2023/03/09 05:10:26;;;;;;;;;3.00;0.00;;;;;11.40;100.00;99591.31;5097559;27;58706;-80
2023/03/09 05:12:51;;;;;;;;;0.25;0.00;;;;;11.48;100.00;99606.56;5097167;27;69208;-82
2023/03/09 05:15:16;;;;;;;;;2.00;0.00;;;;;11.48;100.00;99603.09;5115601;27;63815;-83
2023/03/09 05:17:42;;;;;;;;;0.75;0.50;;;;;11.48;100.00;99606.56;5098217;27;45341;-80
2023/03/09 05:20:10;;;;;;;;;2.00;0.00;;;;;11.46;100.00;99605.78;5097241;27;64305;-81
2023/03/09 05:22:37;;;;;;;;;0.50;0.50;;;;;11.38;100.00;99594.91;5115953;27;46572;-82
2023/03/09 05:25:02;;;;;;;;;2.50;0.75;;;;;11.41;100.00;99608.63;5099981;27;45372;-82
2023/03/09 05:27:28;;;;;;;;;2.00;1.00;;;;;11.39;100.00;99605.25;5101374;27;45390;-82
2023/03/09 05:29:53;;;;;;;;;2.00;1.00;;;;;11.41;100.00;99602.56;5119660;27;58580;-82
2023/03/09 05:32:18;;;;;;;;;4.50;0.00;;;;;11.42;100.00;99607.72;5119781;27;46096;-82
2023/03/09 05:34:45;;;;;;;;;1.00;0.00;;;;;11.41;100.00;99616.44;5119355;27;57457;-82
2023/03/09 05:37:11;;;;;;;;;2.00;0.00;;;;;11.37;100.00;99612.31;5101329;27;45425;-82
2023/03/09 05:39:36;;;;;;;;;0.75;0.00;;;;;11.39;100.00;99607.84;5119052;27;58255;-82
2023/03/09 05:42:01;;;;;;;;;1.50;0.00;;;;;11.37;100.00;99609.69;5118806;27;69131;-82
2023/03/09 05:44:27;;;;;;;;;1.75;0.00;;;;;11.43;100.00;99618.97;5119289;27;52340;-81
2023/03/09 05:46:52;;;;;;;;;1.00;0.75;;;;;11.44;100.00;99618.06;5083199;27;64872;-82
2023/03/09 05:49:17;;;;;;;;;6.00;0.50;;;;;11.43;100.00;99605.94;5119470;27;45513;-82
2023/03/09 05:51:43;;;;;;;;;2.00;1.00;;;;;11.43;100.00;99617.19;5099860;27;72492;-79
2023/03/09 05:54:08;;;;;;;;;0.00;0.00;;;;;11.42;100.00;99623.34;5096596;27;64481;-82
2023/03/09 05:56:34;;;;;;;;;0.00;0.00;;;;;11.39;100.00;99623.50;5097941;27;66479;-82
2023/03/09 05:58:59;;;;;;;;;0.00;0.00;;;;;11.42;100.00;99625.09;5099161;27;45340;-81
2023/03/09 06:01:26;;;;;;;;;2.50;0.00;;;;;11.39;100.00;99626.09;5098669;27;47145;-82
2023/03/09 06:03:52;;;;;;;;;1.75;1.00;;;;;11.45;100.00;99642.34;5080531;27;45784;-82
2023/03/09 06:06:17;;;;;;;;;0.00;0.00;;;;;11.41;100.00;99637.28;5079911;27;45302;-82
2023/03/09 06:08:43;;;;;;;;;3.00;0.75;;;;;11.42;100.00;99643.31;5078120;27;45557;-82
2023/03/09 06:11:09;;;;;;;;;2.75;0.00;;;;;11.41;100.00;99645.09;5096422;27;47183;-82
2023/03/09 06:13:35;;;;;;;;;0.25;0.25;;;;;11.42;100.00;99641.59;5095046;27;45480;-81
2023/03/09 06:16:04;;;;;;;;;0.00;0.00;;;;;11.40;100.00;99642.56;5077945;27;45479;-82
2023/03/09 06:18:30;;;;;;;;;2.75;0.25;;;;;11.38;100.00;99642.63;5106241;27;45502;-82
2023/03/09 06:20:59;;;;;;;;;1.00;1.00;;;;;11.38;100.00;99650.44;5118660;27;45372;-83
2023/03/09 06:23:35;;;;;;;;;;;;;;;;;;;;;
2023/03/09 06:26:06;;;;;;;;;0.75;0.50;;;;;11.39;100.00;99666.94;5076743;27;68892;-93
2023/03/09 06:28:32;;;;;;;;;0.50;0.00;;;;;11.37;100.00;99667.03;5083089;27;45223;-87
2023/03/09 06:30:57;;;;;;;;;0.50;0.00;;;;;11.45;100.00;99669.25;5081107;27;48280;-90
2023/03/09 06:33:23;;;;;;;;;2.50;0.00;;;;;11.48;100.00;99679.53;5063688;27;49965;-92
2023/03/09 06:36:00;;;;;;;;;0.00;0.00;;;;;11.40;100.00;99666.00;5080269;27;45781;-89
2023/03/09 06:38:25;;;;;;;;;0.00;0.00;;;;;11.45;100.00;99669.25;5063594;27;45388;-87
2023/03/09 06:40:54;;;;;;;;;1.75;0.00;;;;;11.51;100.00;99673.31;5098250;27;47397;-86
2023/03/09 06:43:19;;;;;;;;;5.75;0.75;;;;;11.52;100.00;99678.44;5098557;27;45641;-86
2023/03/09 06:45:45;;;;;;;;;0.75;0.00;;;;;11.61;100.00;99690.19;5063665;27;45399;-88
2023/03/09 06:48:11;;;;;;;;;4.25;0.00;;;;;11.59;100.00;99668.56;5080495;27;45495;-87
2023/03/09 06:50:36;;;;;;;;;1.50;0.50;;;;;11.61;100.00;99683.19;5063132;27;47273;-87
2023/03/09 06:53:02;;;;;;;;;2.00;1.00;;;;;11.73;100.00;99686.94;5099403;27;45772;-89
2023/03/09 06:55:28;;;;;;;;;1.00;0.00;;;;;11.66;100.00;99682.94;5098559;27;45404;-91
2023/03/09 06:57:54;;;;;;;;;2.50;1.00;;;;;11.74;100.00;99699.06;5079818;27;45435;-86
2023/03/09 07:00:20;;;;;;;;;0.00;0.00;;;;;11.72;100.00;99689.63;5080184;27;47228;-87
2023/03/09 07:02:46;;;;;;;;;5.75;2.00;;;;;11.77;100.00;99701.50;5083010;27;45754;-94
2023/03/09 07:05:12;;;;;;;;;0.00;0.00;;;;;11.79;100.00;99707.50;5065078;27;45412;-89
2023/03/09 07:07:37;;;;;;;;;2.00;0.00;;;;;11.83;100.00;99710.81;5097281;27;45522;-89
2023/03/09 07:10:04;;;;;;;;;4.50;1.00;;;;;11.78;100.00;99703.19;5119760;27;46055;-96
2023/03/09 07:12:29;;;;;;;;;1.00;1.00;;;;;11.88;100.00;99714.00;5121273;27;45316;-93
2023/03/09 07:14:55;;;;;;;;;1.75;0.00;;;;;11.83;100.00;99697.78;5085119;27;48429;-93
2023/03/09 07:17:20;;;;;;;;;1.75;1.00;;;;;11.87;100.00;99704.50;5117906;27;45696;-94
2023/03/09 07:19:46;;;;;;;;;0.75;0.00;;;;;11.93;100.00;99708.59;5102002;27;45332;-93
2023/03/09 07:22:12;;;;;;;;;1.75;1.25;;;;;11.90;100.00;99706.16;5103048;27;45326;-94
2023/03/09 07:24:37;;;;;;;;;2.00;1.00;;;;;11.93;100.00;99706.00;5119769;27;45429;-92
2023/03/09 07:27:03;;;;;;;;;2.00;2.00;;;;;12.10;100.00;99729.44;5102018;27;45585;-93
2023/03/09 07:29:28;;;;;;;;;3.75;1.00;;;;;12.07;100.00;99721.78;5110492;27;45392;-95
2023/03/09 07:31:54;;;;;;;;;5.75;1.00;;;;;12.11;100.00;99723.31;5108914;27;45555;-94
2023/03/09 07:34:19;;;;;;;;;1.00;1.00;;;;;12.13;100.00;99731.91;5101465;27;45343;-94
2023/03/09 07:36:46;;;;;;;;;2.75;1.00;;;;;12.07;100.00;99724.41;5101496;27;45463;-94
2023/03/09 07:39:14;;;;;;;;;1.50;1.00;;;;;12.08;100.00;99726.06;5102903;27;45490;-95
2023/03/09 07:41:45;;;;;;;;;1.25;0.75;;;;;12.19;100.00;99747.22;5084130;27;46401;-95
2023/03/09 07:44:11;;;;;;;;;1.25;0.50;;;;;12.15;100.00;99742.25;5098310;27;45393;-91
2023/03/09 07:46:36;;;;;;;;;0.75;0.75;;;;;12.17;100.00;99761.28;5101553;27;45344;-88
2023/03/09 07:49:02;;;;;;;;;3.50;2.00;;;;;12.10;100.00;99752.91;5083162;27;47965;-91
2023/03/09 07:51:28;;;;;;;;;2.25;1.00;;;;;12.19;100.00;99751.63;5101990;27;45729;-94
2023/03/09 07:53:54;;;;;;;;;2.00;0.50;;;;;12.23;100.00;99757.50;5101563;27;45285;-94
2023/03/09 07:56:19;;;;;;;;;1.00;1.00;;;;;12.28;100.00;99763.34;5075551;27;45235;-92
2023/03/09 07:58:46;;;;;;;;;0.25;0.25;;;;;12.24;100.00;99752.22;5081033;27;47001;-93
2023/03/09 08:01:16;;;;;;;;;2.50;1.00;;;;;12.30;100.00;99756.28;5098984;27;45316;-92
2023/03/09 08:03:44;;;;;;;;;3.25;1.00;;;;;12.20;100.00;99754.16;5100318;27;45301;-92
2023/03/09 08:06:09;;;;;;;;;8.25;1.00;;;;;12.20;100.00;99745.44;5084238;27;45235;-94
2023/03/09 08:08:38;;;;;;;;;2.25;1.25;;;;;12.34;100.00;99748.19;5118723;27;46519;-91
2023/03/09 08:11:06;;;;;;;;;4.50;1.75;;;;;12.39;100.00;99745.38;5100757;27;45365;-95
2023/03/09 08:13:32;;;;;;;;;6.00;2.00;;;;;12.44;100.00;99750.34;5084322;27;45811;-91
2023/03/09 08:16:00;;;;;;;;;3.00;2.00;;;;;12.55;100.00;99761.06;5118916;27;45308;-95
2023/03/09 08:18:25;;;;;;;;;6.50;2.00;;;;;12.54;100.00;99747.16;5100415;27;47416;-92
2023/03/09 08:21:29;;;;;;;;;8.50;1.00;;;;;12.63;100.00;99758.03;5100176;27;45374;-91
2023/03/09 08:23:57;;;;;;;;;5.75;1.00;;;;;12.70;100.00;99773.31;5119164;27;45486;-88
2023/03/09 08:26:39;;;;;;;;;2.50;1.00;;;;;12.77;100.00;99765.97;5135292;27;45288;-92
2023/03/09 08:29:04;;;;;;;;;2.75;1.50;;;;;12.92;100.00;99767.75;5118324;27;45429;-91
2023/03/09 08:31:32;;;;;;;;;1.50;1.00;;;;;12.96;100.00;99769.31;5090337;27;46002;-92
2023/03/09 08:33:57;;;;;;;;;2.00;1.25;;;;;13.03;100.00;99782.03;5075731;27;45685;-89
2023/03/09 08:36:22;;;;;;;;;4.25;1.00;;;;;13.05;100.00;99756.66;5113354;27;45347;-88
2023/03/09 08:38:51;;;;;;;;;2.00;1.00;;;;;13.14;100.00;99769.22;5073531;27;46968;-92
2023/03/09 08:41:16;;;;;;;;;4.25;1.00;;;;;13.24;100.00;99770.41;5085253;27;45486;-89
2023/03/09 08:43:44;;;;;;;;;1.00;1.00;;;;;13.30;100.00;99764.84;5081497;27;45637;-88
2023/03/09 08:46:14;;;;;;;;;6.00;2.00;;;;;13.47;100.00;99779.59;5095317;27;45431;-91
2023/03/09 08:48:39;;;;;;;;;4.75;0.50;;;;;13.43;100.00;99764.16;5075054;27;47119;-91
2023/03/09 08:51:08;;;;;;;;;1.50;1.50;;;;;13.57;100.00;99786.91;5091982;27;45655;-89
2023/03/09 08:53:55;;;;;;;;;2.00;1.00;;;;;13.58;100.00;99785.97;5075642;27;45418;-89
2023/03/09 08:56:23;;;;;;;;;3.00;1.25;;;;;13.63;100.00;99784.81;5098111;27;45699;-90
2023/03/09 08:58:57;;;;;;;;;3.00;1.00;;;;;13.68;100.00;99784.53;5089555;27;46707;-89
2023/03/09 09:01:22;;;;;;;;;5.00;1.00;;;;;13.85;100.00;99797.47;5083172;27;45304;-88
2023/03/09 09:03:48;;;;;;;;;6.25;1.00;;;;;13.93;100.00;99782.19;5115919;27;45355;-90
2023/03/09 09:06:21;;;;;;;;;3.50;1.00;;;;;13.97;100.00;99771.53;5098653;27;45381;-90
2023/03/09 09:08:56;;;;;;;;;;;;;;;;;;;;;
2023/03/09 09:11:22;;;;;;;;;5.25;1.00;;;;;14.17;100.00;99781.72;5112351;27;73964;-90
2023/03/09 09:13:47;;;;;;;;;1.75;1.00;;;;;14.15;100.00;99773.06;5116362;27;45651;-88
2023/03/09 09:16:26;;;;;;;;;;;;;;;;;;;;;
2023/03/09 09:19:08;;;;;;;;;;;;;;;;;;;;;
2023/03/09 09:21:34;;;;;;;;;2.25;1.00;;;;;14.04;100.00;99783.34;5098688;27;72879;-90
2023/03/09 09:24:12;;;;;;;;;2.25;1.00;;;;;14.09;100.00;99779.50;5097218;27;45732;-93
2023/03/09 09:26:37;;;;;;;;;2.25;1.00;;;;;14.07;100.00;99772.69;5115858;27;45776;-91
2023/03/09 09:29:06;;;;;;;;;2.75;1.25;;;;;14.15;100.00;99783.53;5113197;27;45711;-91
2023/03/09 09:31:31;;;;;;;;;2.50;1.00;;;;;14.23;100.00;99776.09;5097185;27;45934;-86
2023/03/09 09:33:58;;;;;;;;;2.00;2.00;;;;;14.39;100.00;99769.94;5097645;27;45372;-88
2023/03/09 09:36:24;;;;;;;;;5.50;4.75;;;;;14.50;100.00;99750.03;5077513;27;45979;-87
2023/03/09 09:38:52;;;;;;;;;8.75;2.00;;;;;14.82;100.00;99768.22;5096571;27;47106;-88
2023/03/09 09:41:39;;;;;;;;;;;;;;;;;;;;;
2023/03/09 09:44:08;;;;;;;;;1.00;0.00;;;;;14.95;100.00;99767.41;5098118;27;68330;-88
2023/03/09 09:46:35;;;;;;;;;5.50;2.00;;;;;15.05;100.00;99769.38;5089460;27;45534;-86
2023/03/09 09:49:24;;;;;;;;;2.50;1.25;;;;;15.14;100.00;99760.09;5076822;27;45828;-89
2023/03/09 09:52:03;;;;;;;;;7.25;2.25;;;;;15.23;100.00;99764.75;5098160;27;46134;-91
2023/03/09 09:54:47;;;;;;;;;7.75;2.00;;;;;15.31;100.00;99756.41;5090576;27;45532;-85
2023/03/09 09:57:28;;;;;;;;;4.00;3.25;;;;;15.33;100.00;99754.50;5094280;27;45649;-88
2023/03/09 10:00:05;;;;;;;;;4.25;2.00;;;;;15.49;100.00;99770.94;5114157;27;46085;-87
2023/03/09 10:03:15;;;;;;;;;3.00;1.00;;;;;15.37;100.00;99758.63;5115304;27;45347;-85
2023/03/09 10:05:50;;;;;;;;;5.00;1.50;;;;;15.47;100.00;99759.72;5031203;28;46210;-88
2023/03/09 10:09:04;;;;;;;;;3.50;2.00;;;;;15.56;100.00;99763.50;5014152;28;45395;-86
2023/03/09 10:11:46;;;;;;;;;2.75;1.00;;;;;15.45;100.00;99773.84;5023019;28;45588;-91
2023/03/09 10:14:45;;;;;;;;;6.00;1.00;;;;;15.26;100.00;99768.94;4991928;28;46006;-85
2023/03/09 10:17:16;;;;;;;;;4.25;1.75;;;;;15.19;100.00;99767.66;4999287;28;45960;-93
2023/03/09 10:19:41;;;;;;;;;3.25;1.50;;;;;15.17;100.00;99766.91;5032288;28;45712;-88
2023/03/09 10:22:28;;;;;;;;;2.25;2.00;;;;;15.28;100.00;99783.66;5017696;28;47004;-88
2023/03/09 10:25:00;;;;;;;;;4.00;2.75;;;;;15.21;100.00;99774.50;5000569;28;45670;-90
2023/03/09 10:27:29;;;;;;;;;8.00;1.75;;;;;15.31;100.00;99771.28;5016501;28;47065;-91
2023/03/09 10:30:01;;;;;;;;;2.00;1.25;;;;;15.33;100.00;99772.88;5036206;28;45394;-86
2023/03/09 10:32:49;;;;;;;;;7.25;2.00;;;;;15.21;100.00;99761.41;5019823;28;46267;-88
2023/03/09 10:35:36;;;;;;;;;9.00;1.00;;;;;15.28;100.00;99740.84;5002285;28;45442;-93
2023/03/09 10:38:04;;;;;;;;;1.50;1.00;;;;;15.42;100.00;99760.97;5029867;28;45362;-91
2023/03/09 10:40:42;;;;;;;;;2.00;2.00;;;;;15.54;100.00;99748.81;5037483;28;45319;-91
2023/03/09 10:43:17;;;;;;;;;2.00;2.00;;;;;15.64;100.00;99742.88;5081618;27;46565;-89
2023/03/09 10:45:45;;;;;;;;;4.00;1.00;;;;;15.63;100.00;99751.66;5064247;27;45605;-85
2023/03/09 10:48:19;;;;;;;;;4.00;1.00;;;;;15.58;100.00;99758.16;5081653;27;45436;-89
2023/03/09 10:51:21;;;;;;;;;3.00;1.00;;;;;15.33;100.00;99733.53;5098955;27;45355;-87
2023/03/09 10:53:51;;;;;;;;;1.75;1.00;;;;;15.26;100.00;99756.69;5010911;28;47094;-89
2023/03/09 10:56:48;;;;;;;;;3.00;1.00;;;;;15.19;100.00;99765.91;5019008;28;45387;-89
2023/03/09 10:59:19;;;;;;;;;3.50;1.00;;;;;15.10;100.00;99764.69;4942039;28;45290;-89
2023/03/09 11:01:47;;;;;;;;;1.00;1.00;;;;;15.03;100.00;99739.81;4941711;28;45446;-89
2023/03/09 11:04:21;;;;;;;;;5.50;2.50;;;;;15.20;100.00;99751.84;4941065;28;48292;-89
2023/03/09 11:06:54;;;;;;;;;4.25;2.00;;;;;15.26;100.00;99745.34;4957035;28;45914;-88
2023/03/09 11:09:41;;;;;;;;;7.00;2.00;;;;;15.38;100.00;99744.59;4939541;28;45628;-86
2023/03/09 11:12:13;;;;;;;;;1.75;1.50;;;;;15.57;100.00;99744.22;4957210;28;45544;-91
2023/03/09 11:14:48;;;;;;;;;3.50;1.00;;;;;15.74;100.00;99750.16;4956294;28;46658;-89
2023/03/09 11:17:40;;;;;;;;;5.00;2.00;;;;;15.73;100.00;99728.31;4956812;28;45941;-89
2023/03/09 11:20:37;;;;;;;;;3.00;2.00;;;;;15.86;100.00;99747.56;4939503;28;45455;-82
2023/03/09 11:23:51;;;;;;;;;3.00;1.50;;;;;15.81;100.00;99738.34;4944355;28;45465;-88
2023/03/09 11:26:27;;;;;;;;;4.50;1.00;;;;;15.88;100.00;99750.09;4954728;28;45446;-86
2023/03/09 11:29:01;;;;;;;;;2.25;1.00;;;;;15.99;100.00;99744.97;4995029;27;45990;-88
2023/03/09 11:31:38;;;;;;;;;4.00;1.00;;;;;16.05;100.00;99743.72;5080439;27;45398;-89
2023/03/09 11:34:34;;;;;;;;;2.00;0.00;;;;;15.98;100.00;99748.53;5080916;27;45354;-85
2023/03/09 11:37:02;;;;;;;;;2.00;1.00;;;;;16.00;100.00;99735.31;5073157;27;46623;-86
2023/03/09 11:40:06;;;;;;;;;4.00;2.00;;;;;16.10;100.00;99749.47;5080438;27;45873;-90
2023/03/09 11:42:35;;;;;;;;;2.75;1.00;;;;;16.73;100.00;99736.41;5114254;27;45634;-91